Time;durP1;ratioP1;P1;durP2;ratioP2;P2;SDS_P1;SDS_P2;PMS_P1;PMS_P2;Temp;Humidity;BMP_temperature;BMP_pressure;BME280_temperature;BME280_humidity;BME280_pressure;Samples;Min_cycle;Max_cycle;Signal;HPM_P1;HPM_P2
2023/02/08 00:00:39;;;;;;;83.35;39.75;;;;;;;-7.69;100.00;94530.28;5071084;28;20052;-68
2023/02/08 00:03:06;;;;;;;65.65;34.03;;;;;;;-7.67;100.00;94527.72;5045383;28;20044;-68
2023/02/08 00:05:33;;;;;;;43.60;27.08;;;;;;;-7.67;100.00;94532.72;5071497;28;20049;-68
2023/02/08 00:08:00;;;;;;;41.28;26.23;;;;;;;-7.65;100.00;94534.28;5071761;28;20044;-68
2023/02/08 00:10:26;;;;;;;47.17;30.10;;;;;;;-7.66;100.00;94526.84;5071334;28;20469;-68
2023/02/08 00:12:54;;;;;;;46.50;29.42;;;;;;;-7.56;100.00;94538.06;5071707;28;20041;-68
2023/02/08 00:15:21;;;;;;;81.95;37.40;;;;;;;-7.57;100.00;94541.44;5071138;28;20052;-69
2023/02/08 00:17:49;;;;;;;78.15;37.80;;;;;;;-7.65;100.00;94536.78;5071803;28;20045;-69
2023/02/08 00:20:16;;;;;;;90.65;40.17;;;;;;;-7.58;100.00;94537.31;5071544;28;20099;-69
2023/02/08 00:22:42;;;;;;;89.82;39.47;;;;;;;-7.53;100.00;94542.94;5071732;28;20052;-69
2023/02/08 00:25:09;;;;;;;60.15;30.83;;;;;;;-7.64;100.00;94537.59;5071238;28;20842;-69
2023/02/08 00:27:36;;;;;;;83.00;38.72;;;;;;;-7.63;100.00;94545.88;5071128;28;20044;-69
2023/02/08 00:30:03;;;;;;;57.00;30.60;;;;;;;-7.51;100.00;94541.16;5070902;28;20500;-69
2023/02/08 00:32:30;;;;;;;38.53;24.30;;;;;;;-7.44;100.00;94541.72;5071425;28;20044;-69
2023/02/08 00:34:58;;;;;;;37.38;23.92;;;;;;;-7.43;100.00;94542.50;5070858;28;20052;-69
2023/02/08 00:37:25;;;;;;;36.13;22.13;;;;;;;-7.37;100.00;94557.22;5071377;28;20118;-69
2023/02/08 00:39:51;;;;;;;50.22;26.98;;;;;;;-7.56;100.00;94552.22;5071267;28;20053;-69
2023/02/08 00:42:18;;;;;;;47.45;25.80;;;;;;;-7.47;100.00;94559.31;5070671;28;20052;-69
2023/02/08 00:44:45;;;;;;;49.65;26.63;;;;;;;-7.37;100.00;94567.19;5067454;28;20518;-69
2023/02/08 00:47:11;;;;;;;36.03;21.45;;;;;;;-7.35;100.00;94567.97;5069638;28;20052;-69
2023/02/08 00:49:38;;;;;;;45.58;25.48;;;;;;;-7.42;100.00;94572.41;5071017;28;20049;-69
2023/02/08 00:52:06;;;;;;;47.92;25.83;;;;;;;-7.53;100.00;94582.03;5070732;28;20052;-69
2023/02/08 00:54:33;;;;;;;43.60;24.67;;;;;;;-7.49;100.00;94571.06;5070332;28;20048;-69
2023/02/08 00:57:00;;;;;;;37.17;22.30;;;;;;;-7.48;100.00;94570.19;5070461;28;20542;-69
2023/02/08 00:59:27;;;;;;;45.10;25.45;;;;;;;-7.46;100.00;94582.59;5070360;28;20052;-68
2023/02/08 01:01:53;;;;;;;31.80;18.90;;;;;;;-7.55;100.00;94574.59;5070279;28;20519;-68
2023/02/08 01:04:20;;;;;;;28.70;17.73;;;;;;;-7.62;100.00;94575.75;5070696;28;20098;-68
2023/02/08 01:06:47;;;;;;;27.17;17.40;;;;;;;-7.76;100.00;94578.00;5070351;28;20052;-68
2023/02/08 01:09:15;;;;;;;27.65;18.40;;;;;;;-7.81;100.00;94576.53;5070237;28;20543;-68
2023/02/08 01:11:42;;;;;;;26.75;17.05;;;;;;;-7.74;100.00;94577.06;5070028;28;20082;-68
2023/02/08 01:14:08;;;;;;;27.83;18.67;;;;;;;-7.74;100.00;94579.56;5070317;28;20071;-68
2023/02/08 01:16:37;;;;;;;28.95;18.40;;;;;;;-7.89;100.00;94560.25;5069927;28;20078;-68
2023/02/08 01:19:05;;;;;;;25.73;17.23;;;;;;;-7.74;100.00;94581.28;5070291;28;20044;-68
2023/02/08 01:21:37;;;;;;;28.30;19.50;;;;;;;-7.67;100.00;94580.94;5070576;28;20063;-68
2023/02/08 01:24:05;;;;;;;31.98;20.13;;;;;;;-7.62;100.00;94580.75;5064630;28;20048;-68
2023/02/08 01:26:36;;;;;;;30.75;19.75;;;;;;;-7.40;100.00;94574.84;5058412;28;20094;-68
2023/02/08 01:29:03;;;;;;;30.98;19.20;;;;;;;-7.29;100.00;94576.84;5060955;28;20049;-68
2023/02/08 01:31:33;;;;;;;27.85;18.30;;;;;;;-7.07;100.00;94581.72;5058296;28;20053;-68
2023/02/08 01:34:01;;;;;;;29.15;19.90;;;;;;;-6.92;100.00;94576.91;5060706;28;20080;-68
2023/02/08 01:36:32;;;;;;;32.25;21.10;;;;;;;-6.80;100.00;94571.38;5062433;28;20044;-68
2023/02/08 01:38:59;;;;;;;35.42;22.73;;;;;;;-6.81;100.00;94562.22;5069676;28;20094;-68
2023/02/08 01:41:28;;;;;;;34.08;21.88;;;;;;;-6.65;100.00;94569.84;5069964;28;20056;-68
2023/02/08 01:44:04;;;;;;;40.30;24.90;;;;;;;-6.75;100.00;94556.94;5069385;28;20048;-68
2023/02/08 01:46:31;;;;;;;41.83;26.77;;;;;;;-6.63;100.00;94574.78;5070089;28;20040;-68
2023/02/08 01:49:02;;;;;;;40.30;25.58;;;;;;;-6.64;100.00;94575.63;5069559;28;20041;-68
2023/02/08 01:51:32;;;;;;;39.78;25.48;;;;;;;-6.65;100.00;94574.03;5069510;28;20041;-68
2023/02/08 01:54:02;;;;;;;38.45;25.92;;;;;;;-6.65;100.00;94581.53;5068729;28;20048;-68
2023/02/08 01:56:33;;;;;;;41.78;25.35;;;;;;;-6.74;100.00;94573.59;5069426;28;20087;-68
2023/02/08 01:59:05;;;;;;;34.75;22.02;;;;;;;-6.77;100.00;94580.41;5069354;28;20052;-68
2023/02/08 02:01:32;;;;;;;37.75;22.40;;;;;;;-6.78;100.00;94579.59;5069629;28;20048;-68
2023/02/08 02:04:01;;;;;;;33.28;21.50;;;;;;;-6.73;100.00;94592.69;5055686;28;20044;-68
2023/02/08 02:06:32;;;;;;;34.00;21.98;;;;;;;-6.89;100.00;94570.06;5069649;28;20048;-68
2023/02/08 02:09:10;;;;;;;31.58;20.95;;;;;;;-6.71;100.00;94585.91;5068920;28;20048;-68
2023/02/08 02:11:37;;;;;;;33.83;20.98;;;;;;;-6.75;100.00;94588.66;5069187;28;20044;-68
2023/02/08 02:14:10;;;;;;;32.60;21.05;;;;;;;-6.69;100.00;94583.34;5068781;28;20053;-68
2023/02/08 02:16:40;;;;;;;29.17;19.42;;;;;;;-6.86;100.00;94587.44;5057841;28;20085;-69
2023/02/08 02:19:14;;;;;;;30.40;19.15;;;;;;;-7.08;100.00;94550.13;5058416;28;20053;-69
2023/02/08 02:21:54;;;;;;;31.25;19.92;;;;;;;-6.84;100.00;94594.88;5058258;28;20048;-69
2023/02/08 02:24:53;;;;;;;32.20;21.48;;;;;;;-6.98;100.00;94593.00;5058683;28;20048;-69
2023/02/08 02:27:29;;;;;;;31.42;21.48;;;;;;;-7.20;100.00;94539.00;5059011;28;20055;-69
2023/02/08 02:30:48;;;;;;;30.65;21.15;;;;;;;-7.08;100.00;94594.28;5056244;28;20565;-69
2023/02/08 02:33:41;;;;;;;32.22;20.60;;;;;;;-7.03;100.00;94592.38;5057045;28;20053;-69
2023/02/08 02:36:16;;;;;;;33.20;20.95;;;;;;;-7.01;100.00;94595.63;5060067;28;20098;-69
2023/02/08 02:39:01;;;;;;;34.05;22.40;;;;;;;-6.87;100.00;94595.81;5060008;28;20452;-69
2023/02/08 02:44:29;;;;;;;32.72;20.25;;;;;;;-6.74;100.00;94605.25;5057493;28;19935;-69
2023/02/08 02:47:01;;;;;;;30.67;20.08;;;;;;;-6.66;100.00;94604.91;5056911;28;20102;-69
2023/02/08 02:49:37;;;;;;;31.05;19.95;;;;;;;-6.63;100.00;94605.56;5057615;28;20041;-68
2023/02/08 02:52:07;;;;;;;35.42;21.40;;;;;;;-6.52;100.00;94604.28;5057664;28;20048;-68
2023/02/08 02:54:42;;;;;;;39.47;25.23;;;;;;;-6.48;100.00;94603.25;5056594;28;20053;-68
2023/02/08 02:57:15;;;;;;;38.88;24.23;;;;;;;-6.42;100.00;94607.16;5057818;28;20049;-68
2023/02/08 02:59:44;;;;;;;35.72;22.15;;;;;;;-6.40;100.00;94606.19;5058274;28;20496;-68
2023/02/08 03:02:11;;;;;;;34.50;22.90;;;;;;;-6.37;100.00;94612.75;5055202;28;20135;-68
2023/02/08 03:04:52;;;;;;;39.83;25.65;;;;;;;-6.40;100.00;94605.41;5058573;28;20052;-69
2023/02/08 03:07:35;;;;;;;40.70;26.52;;;;;;;-6.72;100.00;94588.50;5057343;28;20051;-69
2023/02/08 03:10:15;;;;;;;38.30;24.20;;;;;;;-6.63;100.00;94613.06;5058520;28;20114;-68
2023/02/08 03:12:51;;;;;;;34.55;21.02;;;;;;;-6.65;100.00;94604.00;5058112;28;20087;-68
2023/02/08 03:15:28;;;;;;;33.25;20.30;;;;;;;-6.84;100.00;94604.88;5057472;28;20049;-68
2023/02/08 03:18:04;;;;;;;37.33;24.05;;;;;;;-6.90;100.00;94605.94;5056251;28;20049;-68
2023/02/08 03:20:38;;;;;;;40.78;25.38;;;;;;;-6.97;100.00;94609.59;5057213;28;20447;-68
2023/02/08 03:23:12;;;;;;;40.17;22.45;;;;;;;-7.26;100.00;94605.00;5061572;28;20053;-68
2023/02/08 03:25:49;;;;;;;36.10;23.80;;;;;;;-7.43;100.00;94610.72;5061882;28;20114;-68
2023/02/08 03:28:23;;;;;;;36.67;23.17;;;;;;;-7.19;100.00;94607.25;5060229;28;20290;-68
2023/02/08 03:30:58;;;;;;;35.78;22.02;;;;;;;-7.29;100.00;94597.66;5058964;28;20049;-69
2023/02/08 03:33:30;;;;;;;36.50;22.50;;;;;;;-7.67;100.00;94598.41;5061469;28;20091;-68
2023/02/08 03:36:03;;;;;;;33.83;21.48;;;;;;;-7.62;100.00;94598.22;5062185;28;20052;-68
2023/02/08 03:38:35;;;;;;;37.20;22.80;;;;;;;-7.82;100.00;94599.06;5061339;28;20044;-68
2023/02/08 03:41:06;;;;;;;37.03;22.65;;;;;;;-7.87;100.00;94603.41;5061429;28;20049;-68
2023/02/08 03:43:37;;;;;;;36.72;24.58;;;;;;;-7.69;100.00;94594.38;5059398;28;20448;-69
2023/02/08 03:46:11;;;;;;;36.40;23.00;;;;;;;-7.71;100.00;94596.91;5061011;28;20049;-68
2023/02/08 03:48:41;;;;;;;37.45;24.20;;;;;;;-7.63;100.00;94596.59;5061690;28;20488;-68
2023/02/08 03:51:10;;;;;;;37.33;23.58;;;;;;;-7.82;100.00;94584.09;5062859;28;20052;-68
2023/02/08 03:53:39;;;;;;;38.90;23.48;;;;;;;-7.60;100.00;94576.50;5062189;28;20067;-68
2023/02/08 03:56:10;;;;;;;37.17;23.08;;;;;;;-7.58;100.00;94586.41;5060628;28;20044;-68
2023/02/08 03:58:44;;;;;;;39.67;24.35;;;;;;;-7.70;100.00;94580.25;5061562;28;20444;-68
2023/02/08 04:01:16;;;;;;;39.72;25.23;;;;;;;-7.53;100.00;94582.84;5058284;28;20049;-68
2023/02/08 04:03:45;;;;;;;38.97;24.75;;;;;;;-7.39;100.00;94576.44;5060736;28;20094;-69
2023/02/08 04:06:13;;;;;;;39.70;24.70;;;;;;;-7.29;100.00;94585.16;5058498;28;20059;-69
2023/02/08 04:08:40;;;;;;;39.30;26.05;;;;;;;-7.26;100.00;94586.72;5061174;28;20066;-69
2023/02/08 04:11:07;;;;;;;40.65;25.98;;;;;;;-7.10;100.00;94596.84;5062453;28;20041;-69
2023/02/08 04:13:33;;;;;;;38.17;24.27;;;;;;;-7.03;100.00;94595.69;5061331;28;20460;-69
2023/02/08 04:16:00;;;;;;;37.17;23.98;;;;;;;-7.52;100.00;94603.63;5061195;28;20044;-69
2023/02/08 04:18:27;;;;;;;38.45;24.60;;;;;;;-7.80;100.00;94600.59;5062379;28;20459;-69
2023/02/08 04:20:53;;;;;;;33.65;22.38;;;;;;;-7.91;100.00;94600.25;5061046;28;20049;-69
2023/02/08 04:23:22;;;;;;;37.25;22.67;;;;;;;-8.22;100.00;94604.78;5060959;28;20049;-69
2023/02/08 04:25:49;;;;;;;34.45;23.55;;;;;;;-8.25;100.00;94609.88;5062511;28;20106;-69
2023/02/08 04:28:15;;;;;;;36.90;25.73;;;;;;;-8.09;100.00;94611.75;5060871;28;20893;-69
2023/02/08 04:30:42;;;;;;;78.93;41.35;;;;;;;-8.15;100.00;94617.78;5059972;28;20048;-69
2023/02/08 04:33:10;;;;;;;61.63;31.17;;;;;;;-8.15;100.00;94624.47;5062397;28;20088;-69
2023/02/08 04:35:37;;;;;;;64.50;34.65;;;;;;;-8.26;100.00;94629.88;5061080;28;20142;-69
2023/02/08 04:38:03;;;;;;;44.95;27.25;;;;;;;-8.36;100.00;94627.75;5060827;28;20045;-69
2023/02/08 04:40:32;;;;;;;48.72;30.38;;;;;;;-8.41;100.00;94626.31;5057673;28;20072;-69
2023/02/08 04:42:59;;;;;;;46.17;29.70;;;;;;;-8.37;100.00;94628.63;5060655;28;20048;-69
2023/02/08 04:45:27;;;;;;;39.85;24.00;;;;;;;-8.28;100.00;94634.94;5062037;28;20417;-69
2023/02/08 04:47:53;;;;;;;37.65;24.38;;;;;;;-8.35;100.00;94631.03;5060371;28;20048;-69
2023/02/08 04:50:20;;;;;;;65.63;38.22;;;;;;;-8.41;100.00;94634.59;5060771;28;20048;-69
2023/02/08 04:52:47;;;;;;;48.22;29.27;;;;;;;-8.55;100.00;94625.19;5057928;28;20044;-69
2023/02/08 04:55:14;;;;;;;64.28;36.08;;;;;;;-8.48;100.00;94630.72;5068706;28;20037;-69
2023/02/08 04:57:42;;;;;;;52.35;31.73;;;;;;;-8.47;100.00;94635.63;5070505;28;20044;-69
2023/02/08 05:00:09;;;;;;;47.00;30.42;;;;;;;-8.49;100.00;94639.88;5070357;28;20044;-69
2023/02/08 05:02:36;;;;;;;51.80;31.25;;;;;;;-8.40;100.00;94641.19;5070328;28;20053;-68
2023/02/08 05:05:03;;;;;;;53.60;31.92;;;;;;;-8.28;100.00;94642.41;5069995;28;20086;-68
2023/02/08 05:07:30;;;;;;;43.78;28.08;;;;;;;-8.19;100.00;94651.22;5070344;28;20045;-68
2023/02/08 05:09:57;;;;;;;43.13;27.65;;;;;;;-8.14;100.00;94661.81;5069775;28;20094;-68
2023/02/08 05:12:24;;;;;;;46.65;29.70;;;;;;;-8.13;100.00;94660.13;5070264;28;20084;-68
2023/02/08 05:14:52;;;;;;;45.72;28.85;;;;;;;-8.15;100.00;94651.91;5070308;28;20044;-68
2023/02/08 05:17:18;;;;;;;42.50;29.00;;;;;;;-7.94;100.00;94661.03;5069560;28;20056;-68
2023/02/08 05:19:45;;;;;;;43.40;27.48;;;;;;;-7.81;100.00;94663.03;5069663;28;20053;-68
2023/02/08 05:22:12;;;;;;;46.75;31.20;;;;;;;-7.70;100.00;94673.38;5069861;28;20079;-68
2023/02/08 05:24:38;;;;;;;56.63;36.05;;;;;;;-7.68;100.00;94673.31;5069572;28;20097;-68
2023/02/08 05:27:05;;;;;;;74.35;43.80;;;;;;;-7.93;100.00;94675.13;5069899;28;20048;-68
2023/02/08 05:29:32;;;;;;;72.97;41.67;;;;;;;-8.19;100.00;94676.94;5069797;28;20040;-68
2023/02/08 05:32:00;;;;;;;53.33;32.97;;;;;;;-8.29;100.00;94683.16;5069494;28;20044;-68
2023/02/08 05:34:27;;;;;;;60.15;35.35;;;;;;;-8.51;100.00;94679.00;5069429;28;20040;-68
2023/02/08 05:36:53;;;;;;;60.88;35.28;;;;;;;-8.60;100.00;94679.38;5069771;28;20048;-68
2023/02/08 05:39:20;;;;;;;93.22;49.83;;;;;;;-8.54;100.00;94680.81;5070057;28;20105;-68
2023/02/08 05:41:47;;;;;;;83.03;47.50;;;;;;;-8.62;100.00;94686.88;5069053;28;20086;-68
2023/02/08 05:44:14;;;;;;;100.90;51.05;;;;;;;-8.54;100.00;94690.78;5069220;28;20044;-68
2023/02/08 05:46:40;;;;;;;45.88;28.88;;;;;;;-8.57;100.00;94699.16;5069366;28;20078;-68
2023/02/08 05:49:08;;;;;;;48.05;30.27;;;;;;;-8.65;100.00;94696.97;5069574;28;20056;-68
2023/02/08 05:51:35;;;;;;;50.40;30.83;;;;;;;-8.64;100.00;94703.59;5069422;28;20811;-68
2023/02/08 05:54:02;;;;;;;52.47;33.55;;;;;;;-8.69;100.00;94702.13;5069266;28;20040;-68
2023/02/08 05:56:28;;;;;;;48.05;31.17;;;;;;;-8.68;100.00;94709.53;5069025;28;20561;-68
2023/02/08 05:58:55;;;;;;;47.95;31.20;;;;;;;-8.76;100.00;94699.03;5069363;28;20048;-68
2023/02/08 06:01:22;;;;;;;58.10;35.00;;;;;;;-8.67;100.00;94701.19;5069268;28;20048;-68
2023/02/08 06:03:49;;;;;;;52.45;33.00;;;;;;;-8.55;100.00;94706.59;5068927;28;20098;-68
2023/02/08 06:06:17;;;;;;;48.75;31.55;;;;;;;-8.32;100.00;94704.00;5069128;28;20149;-68
2023/02/08 06:08:44;;;;;;;53.60;31.38;;;;;;;-8.39;100.00;94705.13;5069212;28;20089;-68
2023/02/08 06:11:11;;;;;;;62.15;36.55;;;;;;;-8.14;100.00;94711.69;5069221;28;20463;-68
2023/02/08 06:13:37;;;;;;;59.20;35.33;;;;;;;-7.86;100.00;94704.81;5068755;28;20041;-68
2023/02/08 06:16:05;;;;;;;50.47;31.77;;;;;;;-7.71;100.00;94710.88;5068960;28;20040;-68
2023/02/08 06:18:32;;;;;;;47.05;30.80;;;;;;;-7.76;100.00;94718.53;5069048;28;20040;-68
2023/02/08 06:20:58;;;;;;;48.25;29.70;;;;;;;-7.63;100.00;94723.03;5068929;28;20094;-68
2023/02/08 06:23:26;;;;;;;48.58;28.13;;;;;;;-7.35;100.00;94722.75;5068689;28;20512;-68
2023/02/08 06:25:53;;;;;;;48.95;29.92;;;;;;;-7.19;100.00;94710.41;5069217;28;20433;-68
2023/02/08 06:28:20;;;;;;;46.08;28.80;;;;;;;-7.08;100.00;94707.50;5069292;28;20118;-68
2023/02/08 06:30:48;;;;;;;51.08;31.40;;;;;;;-7.03;100.00;94718.06;5069298;28;20095;-68
2023/02/08 06:33:15;;;;;;;47.58;30.67;;;;;;;-7.02;100.00;94719.72;5068674;28;20045;-68
2023/02/08 06:35:44;;;;;;;53.13;33.38;;;;;;;-6.98;100.00;94713.69;5068796;28;20053;-68
2023/02/08 06:38:11;;;;;;;51.38;30.48;;;;;;;-6.84;100.00;94715.59;5046305;28;20037;-68
2023/02/08 06:40:39;;;;;;;51.92;29.67;;;;;;;-6.71;100.00;94722.56;5048300;28;20044;-68
2023/02/08 06:43:06;;;;;;;45.35;28.75;;;;;;;-6.58;100.00;94725.31;5048398;28;20094;-68
2023/02/08 06:45:33;;;;;;;48.42;30.08;;;;;;;-6.46;100.00;94726.47;5048515;28;20095;-68
2023/02/08 06:47:59;;;;;;;46.70;27.98;;;;;;;-6.33;100.00;94727.56;5048566;28;20106;-68
2023/02/08 06:50:26;;;;;;;43.95;27.02;;;;;;;-6.22;100.00;94722.06;5048362;28;20098;-68
2023/02/08 06:52:53;;;;;;;41.90;27.50;;;;;;;-6.13;100.00;94727.53;5048362;28;20494;-68
2023/02/08 06:55:19;;;;;;;38.78;25.17;;;;;;;-6.06;100.00;94733.88;5048319;28;20049;-69
2023/02/08 06:57:47;;;;;;;40.10;25.58;;;;;;;-6.08;100.00;94731.44;5048094;28;20505;-69
2023/02/08 07:00:18;;;;;;;38.03;24.17;;;;;;;-6.33;100.00;94722.56;5048308;28;20094;-69
2023/02/08 07:02:46;;;;;;;35.28;23.17;;;;;;;-6.32;100.00;94726.69;5048641;28;20092;-69
2023/02/08 07:05:12;;;;;;;36.80;23.83;;;;;;;-6.23;100.00;94719.63;5048543;28;20045;-68
2023/02/08 07:07:39;;;;;;;51.58;32.97;;;;;;;-6.47;100.00;94722.38;5054378;28;20056;-68
2023/02/08 07:10:06;;;;;;;53.47;30.52;;;;;;;-6.95;100.00;94740.22;5066406;28;20048;-68
2023/02/08 07:12:33;;;;;;;59.58;33.65;;;;;;;-6.85;100.00;94738.16;5067890;28;20141;-68
2023/02/08 07:15:02;;;;;;;43.97;26.75;;;;;;;-6.50;100.00;94733.31;5068335;28;20458;-68
2023/02/08 07:17:29;;;;;;;41.95;26.45;;;;;;;-6.17;100.00;94730.19;5067928;28;20040;-68
2023/02/08 07:19:55;;;;;;;40.78;24.98;;;;;;;-6.06;100.00;94742.19;5068352;28;20044;-68
2023/02/08 07:22:22;;;;;;;41.40;25.38;;;;;;;-5.73;100.00;94738.19;5068291;28;20389;-68
2023/02/08 07:24:49;;;;;;;33.50;21.25;;;;;;;-5.52;100.00;94746.34;5067935;28;20041;-68
2023/02/08 07:27:15;;;;;;;37.08;22.52;;;;;;;-5.29;100.00;94746.13;5068167;28;20094;-68
2023/02/08 07:29:42;;;;;;;37.13;22.00;;;;;;;-5.01;100.00;94749.78;5067907;28;20049;-68
2023/02/08 07:32:12;;;;;;;43.30;26.70;;;;;;;-4.74;100.00;94756.78;5067866;28;20052;-68
2023/02/08 07:34:39;;;;;;;107.32;77.07;;;;;;;-4.52;100.00;94759.03;5067963;28;20051;-68
2023/02/08 07:37:06;;;;;;;106.63;48.67;;;;;;;-4.82;100.00;94764.69;5068191;28;20049;-68
2023/02/08 07:39:33;;;;;;;22.70;14.27;;;;;;;-4.89;100.00;94766.72;5067858;28;20512;-68
2023/02/08 07:42:00;;;;;;;21.75;13.80;;;;;;;-5.10;100.00;94766.06;5067944;28;20040;-68
2023/02/08 07:44:26;;;;;;;20.45;13.07;;;;;;;-5.09;100.00;94767.72;5067731;28;20052;-68
2023/02/08 07:46:53;;;;;;;29.17;17.60;;;;;;;-4.89;100.00;94771.75;5067949;28;20044;-68
2023/02/08 07:49:21;;;;;;;24.02;14.63;;;;;;;-4.79;100.00;94768.75;5068175;28;20431;-68
2023/02/08 07:51:48;;;;;;;22.25;14.98;;;;;;;-4.80;100.00;94767.97;5067716;28;20086;-68
2023/02/08 07:54:17;;;;;;;22.27;16.60;;;;;;;-4.86;100.00;94770.78;5068065;28;20049;-68
2023/02/08 07:56:44;;;;;;;22.73;14.75;;;;;;;-5.49;100.00;94767.94;5067967;28;20443;-68
2023/02/08 07:59:11;;;;;;;26.52;17.05;;;;;;;-6.00;100.00;94768.59;5067967;28;20098;-68
2023/02/08 08:01:38;;;;;;;23.60;14.02;;;;;;;-6.23;100.00;94767.16;5067775;28;20052;-68
2023/02/08 08:04:04;;;;;;;31.92;22.17;;;;;;;-6.22;100.00;94766.28;5067591;28;20177;-68
2023/02/08 08:06:33;;;;;;;42.47;31.85;;;;;;;-6.06;100.00;94763.91;5069659;28;20110;-68
2023/02/08 08:09:02;;;;;;;36.17;27.77;;;;;;;-6.29;100.00;94778.25;5071038;28;20048;-68
2023/02/08 08:11:32;;;;;;;28.70;18.55;;;;;;;-6.39;100.00;94767.84;5071265;28;20040;-68
2023/02/08 08:13:59;;;;;;;26.52;16.83;;;;;;;-6.52;100.00;94767.59;5065193;28;20047;-68
2023/02/08 08:16:25;;;;;;;56.03;29.88;;;;;;;-6.60;100.00;94770.41;5048319;28;20150;-68
2023/02/08 08:18:52;;;;;;;31.92;19.33;;;;;;;-6.62;100.00;94774.66;5049008;28;20049;-68
2023/02/08 08:21:19;;;;;;;27.98;18.92;;;;;;;-6.54;100.00;94771.03;5064644;28;20040;-68
2023/02/08 08:23:47;;;;;;;27.50;17.65;;;;;;;-6.42;100.00;94772.16;5070957;28;20056;-68
2023/02/08 08:26:16;;;;;;;24.67;15.40;;;;;;;-6.54;100.00;94766.81;5071335;28;20048;-68
2023/02/08 08:28:45;;;;;;;29.42;18.65;;;;;;;-6.46;100.00;94771.50;5071108;28;20044;-68
2023/02/08 08:31:13;;;;;;;25.55;18.23;;;;;;;-6.45;100.00;94763.94;5070777;28;20671;-68
2023/02/08 08:33:40;;;;;;;30.35;18.15;;;;;;;-6.26;100.00;94767.31;5070932;28;20095;-68
2023/02/08 08:36:08;;;;;;;24.20;16.30;;;;;;;-6.40;100.00;94766.22;5070690;28;20049;-68
2023/02/08 08:38:35;;;;;;;29.48;18.65;;;;;;;-6.34;100.00;94758.44;5071035;28;20053;-68
2023/02/08 08:41:08;;;;;;;24.35;16.58;;;;;;;-6.24;100.00;94760.53;5070778;28;20102;-68
2023/02/08 08:43:35;;;;;;;28.83;18.02;;;;;;;-5.92;100.00;94765.75;5070521;28;20101;-68
2023/02/08 08:46:02;;;;;;;23.95;16.50;;;;;;;-5.88;100.00;94771.41;5070356;28;20052;-68
2023/02/08 08:48:29;;;;;;;25.77;15.98;;;;;;;-5.96;100.00;94762.59;5071246;28;20040;-68
2023/02/08 08:50:55;;;;;;;27.45;17.50;;;;;;;-5.85;100.00;94768.75;5070642;28;20045;-68
2023/02/08 08:53:22;;;;;;;23.00;15.70;;;;;;;-5.76;100.00;94768.34;5071298;28;20052;-68
2023/02/08 08:55:49;;;;;;;23.77;16.98;;;;;;;-5.39;100.00;94773.31;5070549;28;20080;-68
2023/02/08 08:58:17;;;;;;;24.60;16.13;;;;;;;-5.40;100.00;94777.53;5070545;28;20057;-68
2023/02/08 09:00:43;;;;;;;26.65;18.50;;;;;;;-5.40;100.00;94787.53;5057099;28;20102;-68
2023/02/08 09:03:10;;;;;;;25.63;18.08;;;;;;;-5.45;100.00;94776.94;5070376;28;20052;-68
2023/02/08 09:05:37;;;;;;;25.17;15.98;;;;;;;-5.44;100.00;94795.25;5070267;28;20086;-68
2023/02/08 09:08:04;;;;;;;36.30;20.00;;;;;;;-5.34;100.00;94781.41;5070622;28;20049;-68
2023/02/08 09:10:31;;;;;;;44.83;22.88;;;;;;;-5.29;100.00;94792.03;5070054;28;20488;-68
2023/02/08 09:12:58;;;;;;;29.85;18.27;;;;;;;-5.41;100.00;94795.91;5070896;28;20463;-68
2023/02/08 09:15:26;;;;;;;27.73;16.67;;;;;;;-5.39;100.00;94793.34;5070337;28;20048;-68
2023/02/08 09:17:53;;;;;;;48.03;26.58;;;;;;;-5.27;100.00;94797.75;5069462;28;20052;-68
2023/02/08 09:20:20;;;;;;;37.08;24.05;;;;;;;-5.25;100.00;94795.19;5070345;28;20037;-68
2023/02/08 09:22:47;;;;;;;29.10;18.35;;;;;;;-5.32;100.00;94799.69;5070104;28;20554;-68
2023/02/08 09:25:13;;;;;;;29.95;18.67;;;;;;;-5.29;100.00;94801.22;5070397;28;20045;-68
2023/02/08 09:27:40;;;;;;;35.38;24.70;;;;;;;-5.26;100.00;94814.44;5070538;28;20443;-68
2023/02/08 09:30:08;;;;;;;31.00;20.80;;;;;;;-5.35;100.00;94802.34;5070175;28;20041;-68
2023/02/08 09:32:38;;;;;;;25.05;16.33;;;;;;;-5.15;100.00;94808.06;5070343;28;20045;-68
2023/02/08 09:35:06;;;;;;;29.55;17.83;;;;;;;-5.20;100.00;94805.00;5069730;28;20089;-68
2023/02/08 09:37:32;;;;;;;31.67;18.55;;;;;;;-5.27;100.00;94800.25;5069914;28;20137;-68
2023/02/08 09:40:00;;;;;;;42.08;23.90;;;;;;;-5.31;100.00;94790.47;5069125;28;20102;-68
2023/02/08 09:42:34;;;;;;;33.72;19.10;;;;;;;-5.21;100.00;94805.88;5070180;28;20100;-68
2023/02/08 09:45:13;;;;;;;45.85;24.48;;;;;;;-5.03;100.00;94797.47;5069651;28;20044;-68
2023/02/08 09:47:48;;;;;;;35.38;21.35;;;;;;;-4.91;100.00;94807.78;5069740;28;20048;-68
2023/02/08 09:50:22;;;;;;;38.00;21.38;;;;;;;-4.80;100.00;94802.22;5069558;28;20556;-69
2023/02/08 09:52:54;;;;;;;33.95;19.73;;;;;;;-4.79;100.00;94804.66;5069676;28;20451;-69
2023/02/08 09:55:28;;;;;;;34.30;20.70;;;;;;;-4.72;100.00;94807.69;5069847;28;20048;-69
2023/02/08 09:57:57;;;;;;;31.70;18.75;;;;;;;-4.65;100.00;94805.66;5069675;28;21109;-69
2023/02/08 10:00:31;;;;;;;33.00;19.85;;;;;;;-4.63;100.00;94801.41;5069822;28;20045;-69
2023/02/08 10:03:02;;;;;;;31.42;18.40;;;;;;;-4.70;99.87;94808.41;5069151;28;20041;-69
2023/02/08 10:05:30;;;;;;;32.72;20.40;;;;;;;-4.71;100.00;94806.78;5069874;28;20105;-68
2023/02/08 10:07:59;;;;;;;39.33;24.90;;;;;;;-4.70;100.00;94794.19;5069222;28;20094;-68
2023/02/08 10:10:37;;;;;;;40.15;27.45;;;;;;;-4.71;100.00;94800.06;5069509;28;20045;-68
2023/02/08 10:13:18;;;;;;;34.97;20.85;;;;;;;-4.48;100.00;94789.78;5069641;28;20052;-68
2023/02/08 10:15:52;;;;;;;29.02;19.33;;;;;;;-4.37;100.00;94785.00;5069149;28;20049;-68
2023/02/08 10:18:34;;;;;;;27.83;17.77;;;;;;;-4.73;100.00;94791.81;5069554;28;20045;-68
2023/02/08 10:21:17;;;;;;;28.85;17.52;;;;;;;-4.68;100.00;94796.59;5044277;28;20087;-68
2023/02/08 10:24:09;;;;;;;28.70;17.45;;;;;;;-4.76;100.00;94798.69;5069276;28;20048;-68
2023/02/08 10:26:44;;;;;;;25.65;15.85;;;;;;;-4.71;100.00;94797.56;5069052;28;20052;-68
2023/02/08 10:29:38;;;;;;;34.35;20.27;;;;;;;-4.87;96.50;94792.50;5044535;28;20566;-68
2023/02/08 10:32:19;;;;;;;24.00;16.52;;;;;;;-4.66;97.23;94786.50;5062332;28;20048;-68
2023/02/08 10:34:51;;;;;;;24.17;14.98;;;;;;;-4.59;95.29;94786.13;5064092;28;20097;-68
2023/02/08 10:37:20;;;;;;;27.95;17.23;;;;;;;-4.47;93.85;94793.91;5067013;28;20144;-68
2023/02/08 10:39:49;;;;;;;22.95;16.10;;;;;;;-4.27;92.72;94794.59;5068554;28;20048;-68
2023/02/08 10:42:18;;;;;;;20.73;13.65;;;;;;;-4.33;93.49;94785.66;5068815;28;20044;-68
2023/02/08 10:44:55;;;;;;;24.13;15.13;;;;;;;-4.39;93.05;94796.84;5068914;28;20110;-68
2023/02/08 10:47:36;;;;;;;22.80;14.70;;;;;;;-4.29;91.71;94795.44;5069175;28;20094;-68
2023/02/08 10:50:12;;;;;;;21.50;14.60;;;;;;;-4.34;91.26;94792.41;5069117;28;20048;-68
2023/02/08 10:52:39;;;;;;;24.95;15.85;;;;;;;-4.22;92.08;94792.66;5068635;28;20062;-69
2023/02/08 10:55:13;;;;;;;26.52;14.68;;;;;;;-4.40;90.04;94797.72;5068677;28;20492;-69
2023/02/08 10:57:40;;;;;;;23.95;16.38;;;;;;;-4.36;91.51;94811.72;5068698;28;20048;-69
2023/02/08 11:00:13;;;;;;;25.60;16.88;;;;;;;-4.30;94.28;94793.84;5068628;28;20044;-69
2023/02/08 11:02:42;;;;;;;28.92;17.58;;;;;;;-4.26;93.13;94799.50;5068439;28;20044;-69
2023/02/08 11:05:12;;;;;;;26.63;16.67;;;;;;;-4.37;94.59;94800.06;5068677;28;20044;-69
2023/02/08 11:07:39;;;;;;;35.38;20.05;;;;;;;-4.13;91.00;94798.88;5068851;28;20455;-69
2023/02/08 11:10:22;;;;;;;23.48;14.57;;;;;;;-4.15;88.41;94809.00;5068327;28;20044;-69
2023/02/08 11:12:57;;;;;;;28.17;17.02;;;;;;;-4.10;86.99;94796.19;5068095;28;20057;-69
2023/02/08 11:15:27;;;;;;;28.85;15.73;;;;;;;-4.21;86.80;94801.78;5068753;28;20056;-69
2023/02/08 11:17:57;;;;;;;35.70;19.23;;;;;;;-4.15;86.96;94796.44;5068173;28;20040;-68
2023/02/08 11:20:31;;;;;;;32.03;17.45;;;;;;;-4.10;86.61;94799.53;5068548;28;20098;-68
2023/02/08 11:22:59;;;;;;;26.70;15.00;;;;;;;-4.31;84.49;94798.94;5068552;28;20049;-68